createdAt,value
2019-03-01T00:00:47.993Z,32.80
2019-03-01T00:03:15.967Z,31.30
2019-03-01T00:05:53.106Z,29.42
2019-03-01T00:08:23.876Z,31.17
2019-03-01T00:11:17.758Z,33.92
2019-03-01T00:13:53.656Z,36.33
2019-03-01T00:16:30.167Z,32.55
2019-03-01T00:19:26.431Z,35.20
2019-03-01T00:22:02.186Z,37.25
2019-03-01T00:24:44.170Z,33.47
2019-03-01T00:27:23.799Z,33.42
2019-03-01T00:30:11.715Z,37.22
2019-03-01T00:32:45.750Z,36.50
2019-03-01T00:35:35.544Z,30.70
2019-03-01T00:38:22.874Z,40.72
2019-03-01T00:41:16.112Z,41.42
2019-03-01T00:43:59.517Z,36.92
2019-03-01T00:46:27.596Z,45.58
2019-03-01T00:48:55.374Z,32.67
2019-03-01T00:51:23.448Z,42.60
2019-03-01T00:53:51.542Z,37.50
2019-03-01T00:56:19.603Z,34.28
2019-03-01T00:58:48.152Z,37.08
2019-03-01T01:01:16.250Z,41.80
2019-03-01T01:03:44.337Z,44.42
2019-03-01T01:06:12.501Z,43.20
2019-03-01T01:08:40.655Z,40.12
2019-03-01T01:11:08.533Z,33.80
2019-03-01T01:13:36.696Z,41.63
2019-03-01T01:16:04.798Z,49.53
2019-03-01T01:18:32.326Z,47.17
2019-03-01T01:21:00.452Z,45.95
2019-03-01T01:23:28.587Z,53.75
2019-03-01T01:25:57.060Z,49.22
2019-03-01T01:28:25.673Z,50.05
2019-03-01T01:30:53.500Z,43.75
2019-03-01T01:33:21.578Z,47.58
2019-03-01T01:35:49.676Z,42.60
2019-03-01T01:38:17.763Z,45.00
2019-03-01T01:40:45.889Z,46.50
2019-03-01T01:43:13.966Z,44.08
2019-03-01T01:45:42.043Z,52.47
2019-03-01T01:48:10.123Z,52.45
2019-03-01T01:50:37.920Z,55.70
2019-03-01T01:53:06.046Z,58.40
2019-03-01T01:55:34.118Z,64.28
2019-03-01T01:58:02.209Z,62.75
2019-03-01T02:00:31.263Z,69.87
2019-03-01T02:02:59.043Z,65.18
2019-03-01T02:05:27.490Z,64.35
2019-03-01T02:07:55.501Z,64.15
2019-03-01T02:10:23.356Z,66.53
2019-03-01T02:12:51.733Z,69.68
2019-03-01T02:15:19.818Z,64.10
2019-03-01T02:17:49.114Z,66.87
2019-03-01T02:20:17.406Z,74.90
2019-03-01T02:22:46.734Z,80.20
2019-03-01T02:25:15.325Z,69.28
2019-03-01T02:27:47.579Z,81.10
2019-03-01T02:30:18.951Z,88.05
2019-03-01T02:32:48.930Z,95.00
2019-03-01T02:35:20.057Z,93.15
2019-03-01T02:37:47.858Z,110.47
2019-03-01T02:40:16.000Z,100.40
2019-03-01T02:42:44.369Z,106.25
2019-03-01T02:45:13.383Z,112.70
2019-03-01T02:47:41.415Z,115.03
2019-03-01T02:50:09.883Z,112.30
2019-03-01T02:52:38.011Z,125.25
2019-03-01T02:55:05.912Z,119.47
2019-03-01T02:57:34.867Z,121.62
2019-03-01T03:00:03.008Z,123.22
2019-03-01T03:02:30.797Z,125.68
2019-03-01T03:04:58.619Z,135.20
2019-03-01T03:07:40.993Z,140.62
2019-03-01T03:10:08.960Z,134.75
2019-03-01T03:12:37.311Z,127.95
2019-03-01T03:15:06.490Z,135.65
2019-03-01T03:17:34.847Z,139.60
2019-03-01T03:20:02.921Z,150.62
2019-03-01T03:22:31.020Z,145.38
2019-03-01T03:24:59.198Z,132.75
2019-03-01T03:27:27.353Z,118.85
2019-03-01T03:29:56.143Z,113.20
2019-03-01T03:32:24.334Z,118.85
2019-03-01T03:34:52.094Z,120.80
2019-03-01T03:37:20.154Z,100.30
2019-03-01T03:39:48.516Z,106.12
2019-03-01T03:42:16.685Z,107.55
2019-03-01T03:44:45.325Z,105.90
2019-03-01T03:47:13.903Z,106.57
2019-03-01T03:49:42.057Z,113.75
2019-03-01T03:52:10.616Z,122.28
2019-03-01T03:54:39.271Z,117.53
2019-03-01T03:57:07.187Z,128.62
2019-03-01T03:59:35.052Z,121.68
2019-03-01T04:02:03.147Z,126.90
2019-03-01T04:04:31.218Z,119.15
2019-03-01T04:06:59.379Z,131.87
2019-03-01T04:09:28.175Z,123.90
2019-03-01T04:11:56.242Z,133.18
2019-03-01T04:14:24.093Z,128.60
2019-03-01T04:16:52.783Z,151.20
2019-03-01T04:19:20.630Z,155.50
2019-03-01T04:21:48.453Z,158.32
2019-03-01T04:24:16.620Z,147.90
2019-03-01T04:26:44.742Z,178.77
2019-03-01T04:29:13.097Z,152.90
2019-03-01T04:31:42.448Z,147.52
2019-03-01T04:34:10.620Z,140.50
2019-03-01T04:36:38.731Z,142.30
2019-03-01T04:39:07.404Z,143.80
2019-03-01T04:41:35.513Z,141.35
2019-03-01T04:44:03.597Z,140.00
2019-03-01T04:46:31.957Z,137.37
2019-03-01T04:49:00.054Z,146.87
2019-03-01T04:51:27.930Z,165.37
2019-03-01T04:53:56.290Z,158.55
2019-03-01T04:56:24.488Z,161.12
2019-03-01T04:58:52.742Z,157.02
2019-03-01T05:01:20.930Z,166.05
2019-03-01T05:03:50.429Z,174.75
2019-03-01T05:06:18.563Z,176.12
2019-03-01T05:08:46.579Z,165.85
2019-03-01T05:11:17.416Z,185.80
2019-03-01T05:13:47.092Z,203.20
2019-03-01T05:16:15.431Z,178.43
2019-03-01T05:18:43.571Z,192.25
2019-03-01T05:21:11.636Z,174.23
2019-03-01T05:23:39.897Z,179.45
2019-03-01T05:26:07.954Z,183.20
2019-03-01T05:28:35.855Z,162.20
2019-03-01T05:31:03.934Z,171.95
2019-03-01T05:33:32.406Z,164.93
2019-03-01T05:36:00.449Z,154.38
2019-03-01T05:38:28.854Z,166.25
2019-03-01T05:40:56.930Z,163.70
2019-03-01T05:43:24.485Z,161.55
2019-03-01T05:45:52.841Z,163.35
2019-03-01T05:48:20.959Z,162.90
2019-03-01T05:50:49.207Z,150.85
2019-03-01T05:53:17.930Z,163.37
2019-03-01T05:55:46.054Z,164.48
2019-03-01T05:58:35.939Z,150.43
2019-03-01T06:01:38.509Z,173.02
2019-03-01T06:04:14.905Z,156.05
2019-03-01T06:07:04.987Z,153.12
2019-03-01T06:09:39.285Z,173.68
2019-03-01T06:12:12.702Z,183.85
2019-03-01T06:15:05.942Z,184.57
2019-03-01T06:17:45.111Z,200.45
2019-03-01T06:20:38.465Z,177.73
2019-03-01T06:23:27.680Z,194.55
2019-03-01T06:26:10.315Z,188.23
2019-03-01T06:28:57.593Z,204.85
2019-03-01T06:31:44.011Z,205.20
2019-03-01T06:34:28.284Z,196.90
2019-03-01T06:37:02.501Z,217.07
2019-03-01T06:40:17.537Z,215.77
2019-03-01T06:42:53.855Z,227.95
2019-03-01T06:45:32.137Z,244.45
2019-03-01T06:47:59.601Z,228.07
2019-03-01T06:50:46.914Z,196.20
2019-03-01T06:53:15.329Z,219.13
2019-03-01T06:55:44.421Z,259.67
2019-03-01T06:58:14.046Z,235.95
2019-03-01T07:00:50.158Z,243.48
2019-03-01T07:03:13.248Z,239.90
2019-03-01T07:05:40.983Z,220.63
2019-03-01T07:08:09.108Z,225.77
2019-03-01T07:10:37.276Z,226.10
2019-03-01T07:13:05.224Z,244.93
2019-03-01T07:15:33.683Z,251.10
2019-03-01T07:18:01.551Z,265.58
2019-03-01T07:20:30.174Z,290.33
2019-03-01T07:22:58.867Z,255.98
2019-03-01T07:25:26.648Z,251.20
2019-03-01T07:27:54.656Z,284.02
2019-03-01T07:30:22.748Z,287.58
2019-03-01T07:32:50.600Z,281.33
2019-03-01T07:35:18.393Z,270.88
2019-03-01T07:37:47.751Z,250.32
2019-03-01T07:40:15.835Z,303.00
2019-03-01T07:42:43.697Z,291.65
2019-03-01T07:45:12.086Z,289.48
2019-03-01T07:47:40.239Z,282.08
2019-03-01T07:50:08.113Z,268.17
2019-03-01T07:52:36.206Z,252.95
2019-03-01T07:55:04.355Z,226.68
2019-03-01T07:57:32.358Z,263.77
2019-03-01T08:00:00.538Z,231.63
2019-03-01T08:02:28.394Z,238.20
2019-03-01T08:04:56.467Z,225.13
2019-03-01T08:07:24.909Z,227.48
2019-03-01T08:09:54.222Z,212.18
2019-03-01T08:12:20.878Z,207.98
2019-03-01T08:14:49.125Z,214.60
2019-03-01T08:17:17.305Z,216.93
2019-03-01T08:19:45.764Z,227.68
2019-03-01T08:22:13.038Z,213.20
2019-03-01T08:24:42.843Z,186.15
2019-03-01T08:27:09.919Z,183.98
2019-03-01T08:29:36.648Z,161.68
2019-03-01T08:32:04.728Z,126.60
2019-03-01T08:34:32.580Z,95.55
2019-03-01T08:37:00.781Z,99.95
2019-03-01T08:39:29.748Z,73.20
2019-03-01T08:42:01.235Z,25.85
2019-03-01T08:44:26.502Z,38.75
2019-03-01T08:46:54.074Z,36.38
2019-03-01T08:49:22.249Z,28.83
2019-03-01T08:51:50.707Z,33.53
2019-03-01T08:54:18.783Z,21.08
2019-03-01T08:56:50.307Z,23.30
2019-03-01T08:59:17.469Z,17.33
2019-03-01T09:01:45.085Z,20.70
2019-03-01T09:04:14.216Z,17.20
2019-03-01T09:06:41.942Z,19.98
2019-03-01T09:09:10.337Z,20.17
2019-03-01T09:11:41.796Z,24.58
2019-03-01T09:14:09.211Z,16.87
2019-03-01T09:16:37.364Z,16.70
2019-03-01T09:19:04.790Z,18.67
2019-03-01T09:21:33.538Z,14.55
2019-03-01T09:24:01.689Z,15.40
2019-03-01T09:26:29.837Z,25.05
2019-03-01T09:28:58.742Z,21.05
2019-03-01T09:31:28.329Z,25.48
2019-03-01T09:33:56.574Z,11.02
2019-03-01T09:36:31.847Z,16.10
2019-03-01T09:39:01.080Z,17.37
2019-03-01T09:41:30.187Z,18.75
2019-03-01T09:43:59.675Z,18.02
2019-03-01T09:46:28.278Z,28.98
2019-03-01T09:48:55.096Z,20.48
2019-03-01T09:51:25.410Z,16.87
2019-03-01T09:53:54.181Z,29.23
2019-03-01T09:56:24.314Z,20.92
2019-03-01T09:58:50.468Z,19.67
2019-03-01T10:01:19.521Z,12.18
2019-03-01T10:03:47.999Z,19.70
2019-03-01T10:06:16.096Z,8.05
2019-03-01T10:08:44.269Z,18.27
2019-03-01T10:11:14.998Z,9.30
2019-03-01T10:13:43.480Z,9.45
2019-03-01T10:16:11.640Z,7.97
2019-03-01T10:18:39.734Z,15.38
2019-03-01T10:21:07.591Z,11.98
2019-03-01T10:23:35.330Z,11.07
2019-03-01T10:26:03.716Z,16.60
2019-03-01T10:28:31.988Z,19.15
2019-03-01T10:31:00.162Z,14.50
2019-03-01T10:33:28.761Z,16.40
2019-03-01T10:35:56.631Z,13.52
2019-03-01T10:38:24.693Z,11.98
2019-03-01T10:40:52.861Z,17.05
2019-03-01T10:43:20.777Z,18.27
2019-03-01T10:45:49.068Z,13.98
2019-03-01T10:48:17.191Z,15.57
2019-03-01T10:50:46.431Z,16.62
2019-03-01T10:53:14.502Z,15.35
2019-03-01T10:55:42.481Z,10.55
2019-03-01T10:58:10.224Z,16.92
2019-03-01T11:00:38.191Z,11.77
2019-03-01T11:03:06.220Z,14.00
2019-03-01T11:05:33.702Z,11.48
2019-03-01T11:08:01.647Z,11.55
2019-03-01T11:10:30.853Z,13.15
2019-03-01T11:12:58.874Z,12.85
2019-03-01T11:15:26.369Z,19.90
2019-03-01T11:17:54.167Z,14.25
2019-03-01T11:20:22.566Z,17.17
2019-03-01T11:22:50.906Z,18.73
2019-03-01T11:25:19.063Z,11.38
2019-03-01T11:27:47.664Z,13.02
2019-03-01T11:30:20.431Z,13.50
2019-03-01T11:32:48.562Z,18.20
2019-03-01T11:35:16.924Z,12.85
2019-03-01T11:37:45.080Z,10.50
2019-03-01T11:40:14.503Z,11.80
2019-03-01T11:42:43.233Z,12.57
2019-03-01T11:45:12.142Z,7.25
2019-03-01T11:47:40.328Z,9.57
2019-03-01T11:50:10.021Z,15.27
2019-03-01T11:52:38.511Z,11.07
2019-03-01T11:55:06.587Z,9.90
2019-03-01T11:57:34.642Z,9.98
2019-03-01T12:00:02.150Z,10.73
2019-03-01T12:02:30.544Z,7.65
2019-03-01T12:04:58.767Z,7.82
2019-03-01T12:07:26.929Z,11.10
2019-03-01T12:09:54.773Z,9.50
2019-03-01T12:12:23.169Z,11.50
2019-03-01T12:14:51.240Z,6.93
2019-03-01T12:17:19.390Z,14.65
2019-03-01T12:19:47.798Z,7.62
2019-03-01T12:22:17.379Z,8.45
2019-03-01T12:24:44.053Z,9.43
2019-03-01T12:27:13.339Z,8.07
2019-03-01T12:29:42.006Z,6.55
2019-03-01T12:32:10.678Z,8.65
2019-03-01T12:34:39.632Z,6.95
2019-03-01T12:37:08.109Z,9.43
2019-03-01T12:39:36.098Z,6.95
2019-03-01T12:42:05.201Z,8.55
2019-03-01T12:44:33.497Z,7.28
2019-03-01T12:47:02.274Z,5.12
2019-03-01T12:49:30.271Z,10.52
2019-03-01T12:51:58.277Z,4.20
2019-03-01T12:54:26.235Z,5.65
2019-03-01T12:56:54.415Z,5.03
2019-03-01T12:59:22.455Z,7.22
2019-03-01T13:01:50.530Z,7.78
2019-03-01T13:04:18.612Z,2.45
2019-03-01T13:06:46.345Z,10.73
2019-03-01T13:09:15.675Z,8.23
2019-03-01T13:11:44.011Z,9.27
2019-03-01T13:14:12.204Z,7.72
2019-03-01T13:16:40.262Z,6.87
2019-03-01T13:19:08.140Z,6.25
2019-03-01T13:21:36.228Z,9.70
2019-03-01T13:24:03.973Z,6.03
2019-03-01T13:26:31.887Z,6.53
2019-03-01T13:29:00.022Z,7.80
2019-03-01T13:31:28.212Z,4.35
2019-03-01T13:33:56.387Z,7.05
2019-03-01T13:36:24.329Z,7.78
2019-03-01T13:38:52.505Z,7.37
2019-03-01T13:41:20.533Z,6.18
2019-03-01T13:43:48.376Z,7.45
2019-03-01T13:46:16.522Z,6.78
2019-03-01T13:48:45.313Z,5.10
2019-03-01T13:51:13.811Z,7.47
2019-03-01T13:53:48.794Z,6.97
2019-03-01T13:56:10.810Z,4.82
2019-03-01T13:58:38.015Z,5.70
2019-03-01T14:01:06.048Z,8.88
2019-03-01T14:03:34.689Z,4.37
2019-03-01T14:06:02.532Z,6.65
2019-03-01T14:08:30.433Z,4.72
2019-03-01T14:10:58.591Z,5.05
2019-03-01T14:13:26.649Z,3.55
2019-03-01T14:15:54.972Z,5.10
2019-03-01T14:18:23.103Z,4.85
2019-03-01T14:20:54.436Z,7.53
2019-03-01T14:23:21.305Z,4.03
2019-03-01T14:25:48.231Z,6.25
2019-03-01T14:28:16.391Z,7.93
2019-03-01T14:30:44.146Z,6.95
2019-03-01T14:33:12.300Z,11.60
2019-03-01T14:35:40.408Z,7.00
2019-03-01T14:38:08.457Z,4.32
2019-03-01T14:40:37.203Z,5.22
2019-03-01T14:43:07.508Z,5.47
2019-03-01T14:45:35.638Z,7.37
2019-03-01T14:48:05.093Z,5.57
2019-03-01T14:50:33.886Z,6.60
2019-03-01T14:53:01.202Z,3.50
2019-03-01T14:55:34.115Z,8.35
2019-03-01T14:58:07.571Z,5.90
2019-03-01T15:00:37.810Z,3.55
2019-03-01T15:03:18.938Z,5.20
2019-03-01T15:05:47.134Z,6.55
2019-03-01T15:08:15.734Z,5.07
2019-03-01T15:10:43.616Z,6.22
2019-03-01T15:13:11.653Z,7.05
2019-03-01T15:15:40.311Z,6.75
2019-03-01T15:18:08.434Z,5.22
2019-03-01T15:20:36.976Z,5.15
2019-03-01T15:23:04.729Z,5.72
2019-03-01T15:25:32.629Z,5.12
2019-03-01T15:28:00.940Z,5.80
2019-03-01T15:30:31.126Z,6.60
2019-03-01T15:32:59.309Z,7.30
2019-03-01T15:35:28.765Z,8.90
2019-03-01T15:37:54.947Z,2.90
2019-03-01T15:40:23.140Z,3.47
2019-03-01T15:42:51.459Z,9.02
2019-03-01T15:45:19.358Z,4.12
2019-03-01T15:47:47.484Z,5.85
2019-03-01T15:50:15.585Z,6.25
2019-03-01T15:52:45.708Z,7.93
2019-03-01T15:55:12.897Z,7.12
2019-03-01T15:57:40.754Z,8.15
2019-03-01T16:00:09.507Z,5.40
2019-03-01T16:02:37.390Z,6.18
2019-03-01T16:05:05.859Z,8.00
2019-03-01T16:07:33.918Z,7.93
2019-03-01T16:10:02.240Z,6.80
2019-03-01T16:12:32.393Z,8.77
2019-03-01T16:15:00.475Z,8.93
2019-03-01T16:17:27.132Z,5.70
2019-03-01T16:19:55.857Z,5.35
2019-03-01T16:22:23.877Z,7.28
2019-03-01T16:24:52.007Z,7.95
2019-03-01T16:27:20.191Z,6.85
2019-03-01T16:29:48.325Z,8.95
2019-03-01T16:32:16.416Z,6.37
2019-03-01T16:34:44.838Z,8.15
2019-03-01T16:37:12.324Z,8.90
2019-03-01T16:39:40.526Z,10.45
2019-03-01T16:42:08.649Z,9.88
2019-03-01T16:44:36.775Z,15.25
2019-03-01T16:47:06.756Z,6.95
2019-03-01T16:49:33.089Z,9.10
2019-03-01T16:52:00.888Z,8.57
2019-03-01T16:54:29.573Z,9.13
2019-03-01T16:56:57.805Z,7.75
2019-03-01T16:59:27.077Z,6.60
2019-03-01T17:01:55.199Z,7.47
2019-03-01T17:04:27.105Z,6.43
2019-03-01T17:06:51.109Z,5.57
2019-03-01T17:09:19.189Z,3.20
2019-03-01T17:11:47.867Z,6.35
2019-03-01T17:14:16.097Z,7.28
2019-03-01T17:16:44.027Z,3.92
2019-03-01T17:19:12.342Z,1.85
2019-03-01T17:21:40.431Z,2.42
2019-03-01T17:24:12.143Z,5.45
2019-03-01T17:26:38.961Z,5.00
2019-03-01T17:29:05.004Z,2.47
2019-03-01T17:31:33.047Z,1.85
2019-03-01T17:34:01.165Z,2.03
2019-03-01T17:36:29.188Z,3.00
2019-03-01T17:38:57.290Z,4.18
2019-03-01T17:41:25.733Z,3.25
2019-03-01T17:43:53.658Z,2.28
2019-03-01T17:46:21.486Z,1.08
2019-03-01T17:48:49.712Z,1.15
2019-03-01T17:51:18.191Z,1.60
2019-03-01T17:53:46.490Z,2.08
2019-03-01T17:56:14.558Z,2.50
2019-03-01T17:58:42.475Z,1.35
2019-03-01T18:01:10.505Z,1.20
2019-03-01T18:03:38.554Z,2.33
2019-03-01T18:06:06.376Z,1.73
2019-03-01T18:08:35.886Z,2.40
2019-03-01T18:11:05.394Z,1.67
2019-03-01T18:13:30.758Z,1.48
2019-03-01T18:15:58.857Z,3.05
2019-03-01T18:18:27.126Z,1.95
2019-03-01T18:20:55.298Z,1.90
2019-03-01T18:23:23.866Z,1.67
2019-03-01T18:25:51.977Z,4.00
2019-03-01T18:28:20.114Z,1.90
2019-03-01T18:30:47.902Z,4.57
2019-03-01T18:33:20.779Z,2.28
2019-03-01T18:35:45.056Z,1.05
2019-03-01T18:38:12.909Z,2.58
2019-03-01T18:40:41.010Z,3.03
2019-03-01T18:43:09.810Z,2.37
2019-03-01T18:45:38.481Z,1.85
2019-03-01T18:48:08.779Z,1.80
2019-03-01T18:50:33.777Z,1.80
2019-03-01T18:53:03.574Z,2.30
2019-03-01T18:55:30.592Z,1.80
2019-03-01T18:57:58.502Z,1.40
2019-03-01T19:00:29.020Z,4.32
2019-03-01T19:02:57.431Z,2.12
2019-03-01T19:05:23.359Z,2.53
2019-03-01T19:07:51.398Z,1.95
2019-03-01T19:10:19.474Z,3.47
2019-03-01T19:12:48.607Z,1.77
2019-03-01T19:15:16.416Z,4.32
2019-03-01T19:17:44.546Z,3.25
2019-03-01T19:20:12.492Z,3.95
2019-03-01T19:22:40.563Z,3.15
2019-03-01T19:25:08.467Z,1.85
2019-03-01T19:27:36.567Z,4.37
2019-03-01T19:30:05.081Z,1.70
2019-03-01T19:32:32.840Z,1.92
2019-03-01T19:35:00.661Z,2.10
2019-03-01T19:37:28.869Z,4.82
2019-03-01T19:39:56.955Z,2.25
2019-03-01T19:42:25.608Z,4.55
2019-03-01T19:44:53.721Z,2.30
2019-03-01T19:47:23.667Z,3.85
2019-03-01T19:49:50.842Z,4.43
2019-03-01T19:52:18.727Z,2.83
2019-03-01T19:54:47.223Z,2.00
2019-03-01T19:57:15.278Z,2.00
2019-03-01T19:59:46.564Z,3.05
2019-03-01T20:02:11.942Z,2.92
2019-03-01T20:04:40.012Z,4.78
2019-03-01T20:07:08.108Z,4.00
2019-03-01T20:09:36.634Z,4.07
2019-03-01T20:12:03.977Z,8.30
2019-03-01T20:14:33.739Z,3.97
2019-03-01T20:17:00.385Z,6.30
2019-03-01T20:19:28.467Z,3.87
2019-03-01T20:21:56.558Z,4.72
2019-03-01T20:24:24.955Z,3.55
2019-03-01T20:26:53.067Z,4.03
2019-03-01T20:29:21.249Z,8.48
2019-03-01T20:31:49.519Z,5.15
2019-03-01T20:34:17.577Z,3.35
2019-03-01T20:36:45.853Z,2.72
2019-03-01T20:39:15.612Z,2.92
2019-03-01T20:41:46.367Z,3.92
2019-03-01T20:44:10.654Z,3.03
2019-03-01T20:46:40.048Z,3.53
2019-03-01T20:49:06.916Z,3.70
2019-03-01T20:51:35.009Z,3.85
2019-03-01T20:54:03.108Z,3.10
2019-03-01T20:56:31.253Z,2.72
2019-03-01T20:58:59.408Z,3.62
2019-03-01T21:01:28.198Z,2.97
2019-03-01T21:03:56.320Z,3.22
2019-03-01T21:06:24.469Z,2.97
2019-03-01T21:08:52.893Z,4.32
2019-03-01T21:11:21.787Z,4.22
2019-03-01T21:13:49.732Z,4.07
2019-03-01T21:16:17.258Z,5.03
2019-03-01T21:18:45.336Z,3.58
2019-03-01T21:21:13.252Z,4.72
2019-03-01T21:23:41.675Z,5.68
2019-03-01T21:26:11.999Z,2.55
2019-03-01T21:28:37.786Z,3.67
2019-03-01T21:31:06.164Z,5.00
2019-03-01T21:33:34.772Z,4.97
2019-03-01T21:36:02.607Z,4.00
2019-03-01T21:38:30.732Z,5.18
2019-03-01T21:40:58.815Z,3.42
2019-03-01T21:43:27.057Z,2.67
2019-03-01T21:45:55.577Z,3.93
2019-03-01T21:48:25.302Z,3.37
2019-03-01T21:50:51.311Z,5.05
2019-03-01T21:53:19.342Z,6.40
2019-03-01T21:55:47.194Z,5.18
2019-03-01T21:58:15.277Z,2.92
2019-03-01T22:00:44.084Z,4.82
2019-03-01T22:03:12.972Z,4.20
2019-03-01T22:05:45.298Z,4.93
2019-03-01T22:08:12.950Z,3.58
2019-03-01T22:10:38.913Z,4.70
2019-03-01T22:13:05.449Z,5.68
2019-03-01T22:15:34.454Z,4.90
2019-03-01T22:18:02.621Z,4.22
2019-03-01T22:20:31.195Z,5.60
2019-03-01T22:23:00.569Z,4.82
2019-03-01T22:25:29.214Z,4.28
2019-03-01T22:27:57.742Z,5.28
2019-03-01T22:30:26.771Z,7.45
2019-03-01T22:32:57.822Z,5.22
2019-03-01T22:35:25.690Z,7.43
2019-03-01T22:37:56.788Z,6.75
2019-03-01T22:40:28.064Z,4.45
2019-03-01T22:42:53.440Z,3.12
2019-03-01T22:45:21.546Z,2.87
2019-03-01T22:47:49.676Z,6.53
2019-03-01T22:50:17.449Z,3.55
2019-03-01T22:52:45.934Z,5.97
2019-03-01T22:55:14.823Z,2.83
2019-03-01T22:57:44.761Z,3.30
2019-03-01T23:00:49.488Z,3.17
2019-03-01T23:03:18.755Z,2.87
2019-03-01T23:05:46.328Z,5.78
2019-03-01T23:08:14.472Z,5.90
2019-03-01T23:10:42.558Z,4.30
2019-03-01T23:13:10.916Z,4.32
2019-03-01T23:15:39.457Z,6.03
2019-03-01T23:18:07.400Z,4.53
2019-03-01T23:20:35.200Z,6.35
2019-03-01T23:23:03.740Z,7.05
2019-03-01T23:25:31.901Z,7.20
2019-03-01T23:27:59.672Z,5.18
2019-03-01T23:30:29.110Z,7.12
2019-03-01T23:32:56.240Z,6.22
2019-03-01T23:35:24.329Z,11.38
2019-03-01T23:37:52.469Z,8.15
2019-03-01T23:40:20.439Z,7.68
2019-03-01T23:42:48.204Z,7.72
2019-03-01T23:45:17.427Z,8.45
2019-03-01T23:47:45.095Z,8.80
2019-03-01T23:50:13.338Z,9.23
2019-03-01T23:52:41.436Z,12.30
2019-03-01T23:55:10.099Z,9.48
2019-03-01T23:57:40.733Z,10.48
